sensor_id;sensor_type;location;lat;lon;timestamp;pressure;altitude;pressure_sealevel;temperature;humidity
36788;BME280;22738;45.560;9.434;2023-08-31T00:03:30;99204.78;;;19.31;100.00
36788;BME280;22738;45.560;9.434;2023-08-31T00:10:11;99209.53;;;19.27;100.00
36788;BME280;22738;45.560;9.434;2023-08-31T00:16:52;99214.50;;;19.14;100.00
36788;BME280;22738;45.560;9.434;2023-08-31T00:23:34;99220.41;;;19.00;100.00
36788;BME280;22738;45.560;9.434;2023-08-31T00:30:15;99225.03;;;18.90;100.00
36788;BME280;22738;45.560;9.434;2023-08-31T00:36:56;99231.91;;;18.75;100.00
36788;BME280;22738;45.560;9.434;2023-08-31T00:43:36;99234.22;;;18.78;100.00
36788;BME280;22738;45.560;9.434;2023-08-31T00:50:18;99225.84;;;18.74;100.00
36788;BME280;22738;45.560;9.434;2023-08-31T00:56:59;99228.16;;;18.69;100.00
36788;BME280;22738;45.560;9.434;2023-08-31T01:17:12;99223.97;;;18.26;100.00
36788;BME280;22738;45.560;9.434;2023-08-31T01:23:54;99238.25;;;18.24;100.00
36788;BME280;22738;45.560;9.434;2023-08-31T01:30:35;99240.84;;;18.16;100.00
36788;BME280;22738;45.560;9.434;2023-08-31T01:37:17;99252.47;;;18.13;100.00
36788;BME280;22738;45.560;9.434;2023-08-31T01:44:01;99258.91;;;18.27;100.00
36788;BME280;22738;45.560;9.434;2023-08-31T01:50:43;99256.44;;;18.33;100.00
36788;BME280;22738;45.560;9.434;2023-08-31T01:57:24;99262.28;;;18.03;100.00
36788;BME280;22738;45.560;9.434;2023-08-31T02:04:19;99268.91;;;18.23;100.00
36788;BME280;22738;45.560;9.434;2023-08-31T02:11:00;99266.91;;;18.17;100.00
36788;BME280;22738;45.560;9.434;2023-08-31T02:17:41;99276.41;;;18.10;100.00
36788;BME280;22738;45.560;9.434;2023-08-31T02:24:23;99279.28;;;17.99;100.00
36788;BME280;22738;45.560;9.434;2023-08-31T02:31:06;99283.00;;;17.80;100.00
36788;BME280;22738;45.560;9.434;2023-08-31T02:37:47;99275.09;;;17.72;100.00
36788;BME280;22738;45.560;9.434;2023-08-31T02:44:30;99278.06;;;17.77;100.00
36788;BME280;22738;45.560;9.434;2023-08-31T02:51:11;99281.81;;;17.75;100.00
36788;BME280;22738;45.560;9.434;2023-08-31T02:57:51;99289.19;;;17.71;100.00
36788;BME280;22738;45.560;9.434;2023-08-31T03:04:33;99297.81;;;17.64;100.00
36788;BME280;22738;45.560;9.434;2023-08-31T03:11:14;99301.78;;;17.68;100.00
36788;BME280;22738;45.560;9.434;2023-08-31T03:17:56;99295.75;;;17.50;100.00
36788;BME280;22738;45.560;9.434;2023-08-31T03:24:37;99304.53;;;17.92;100.00
36788;BME280;22738;45.560;9.434;2023-08-31T03:31:18;99304.44;;;17.76;100.00
36788;BME280;22738;45.560;9.434;2023-08-31T03:37:59;99310.81;;;17.73;100.00
36788;BME280;22738;45.560;9.434;2023-08-31T03:44:42;99322.47;;;17.79;100.00
36788;BME280;22738;45.560;9.434;2023-08-31T03:51:23;99317.63;;;17.41;100.00
36788;BME280;22738;45.560;9.434;2023-08-31T03:58:04;99328.81;;;17.68;100.00
36788;BME280;22738;45.560;9.434;2023-08-31T04:04:46;99334.47;;;17.56;100.00
36788;BME280;22738;45.560;9.434;2023-08-31T04:11:28;99337.81;;;17.66;100.00
36788;BME280;22738;45.560;9.434;2023-08-31T04:18:09;99340.59;;;17.64;100.00
36788;BME280;22738;45.560;9.434;2023-08-31T04:24:51;99350.75;;;17.67;100.00
36788;BME280;22738;45.560;9.434;2023-08-31T04:31:32;99351.28;;;17.71;100.00
36788;BME280;22738;45.560;9.434;2023-08-31T04:38:13;99369.19;;;17.83;100.00
36788;BME280;22738;45.560;9.434;2023-08-31T04:44:54;99369.38;;;17.82;100.00
36788;BME280;22738;45.560;9.434;2023-08-31T04:51:35;99387.44;;;17.93;100.00
36788;BME280;22738;45.560;9.434;2023-08-31T04:58:17;99391.06;;;17.92;100.00
36788;BME280;22738;45.560;9.434;2023-08-31T05:04:58;99395.78;;;18.14;100.00
36788;BME280;22738;45.560;9.434;2023-08-31T05:11:39;99408.81;;;18.32;100.00
36788;BME280;22738;45.560;9.434;2023-08-31T05:18:20;99420.78;;;18.34;100.00
36788;BME280;22738;45.560;9.434;2023-08-31T05:25:02;99424.09;;;18.44;100.00
36788;BME280;22738;45.560;9.434;2023-08-31T05:31:42;99437.38;;;18.43;100.00
36788;BME280;22738;45.560;9.434;2023-08-31T05:38:23;99455.94;;;18.83;100.00
36788;BME280;22738;45.560;9.434;2023-08-31T05:45:04;99454.50;;;18.89;100.00
36788;BME280;22738;45.560;9.434;2023-08-31T05:51:45;99464.13;;;19.30;100.00
36788;BME280;22738;45.560;9.434;2023-08-31T05:58:26;99478.31;;;19.93;100.00
36788;BME280;22738;45.560;9.434;2023-08-31T06:05:07;99480.91;;;20.18;100.00
36788;BME280;22738;45.560;9.434;2023-08-31T06:11:50;99489.13;;;20.31;100.00
36788;BME280;22738;45.560;9.434;2023-08-31T06:18:31;99497.66;;;20.41;100.00
36788;BME280;22738;45.560;9.434;2023-08-31T06:25:12;99501.72;;;20.59;100.00
36788;BME280;22738;45.560;9.434;2023-08-31T06:31:55;99516.00;;;22.11;100.00
36788;BME280;22738;45.560;9.434;2023-08-31T06:38:36;99536.81;;;25.45;100.00
36788;BME280;22738;45.560;9.434;2023-08-31T06:45:17;99534.41;;;25.77;100.00
36788;BME280;22738;45.560;9.434;2023-08-31T06:51:59;99531.34;;;25.06;100.00
36788;BME280;22738;45.560;9.434;2023-08-31T06:58:40;99542.84;;;26.13;100.00
36788;BME280;22738;45.560;9.434;2023-08-31T07:05:24;99559.72;;;29.21;100.00
36788;BME280;22738;45.560;9.434;2023-08-31T07:12:06;99567.25;;;31.57;79.42
36788;BME280;22738;45.560;9.434;2023-08-31T07:18:47;99571.41;;;32.09;67.10
36788;BME280;22738;45.560;9.434;2023-08-31T07:25:28;99580.03;;;33.69;60.59
36788;BME280;22738;45.560;9.434;2023-08-31T07:32:09;99592.59;;;34.49;59.30
36788;BME280;22738;45.560;9.434;2023-08-31T07:38:50;99594.22;;;34.50;55.10
36788;BME280;22738;45.560;9.434;2023-08-31T07:45:31;99612.00;;;35.45;52.19
36788;BME280;22738;45.560;9.434;2023-08-31T07:52:12;99617.25;;;35.81;55.48
36788;BME280;22738;45.560;9.434;2023-08-31T07:58:52;99620.25;;;36.40;45.04
36788;BME280;22738;45.560;9.434;2023-08-31T08:05:34;99622.47;;;34.84;55.27
36788;BME280;22738;45.560;9.434;2023-08-31T08:12:15;99630.72;;;33.83;67.68
36788;BME280;22738;45.560;9.434;2023-08-31T08:18:55;99628.13;;;32.01;91.03
36788;BME280;22738;45.560;9.434;2023-08-31T08:25:36;99629.34;;;30.91;100.00
36788;BME280;22738;45.560;9.434;2023-08-31T08:32:17;99626.75;;;30.61;100.00
36788;BME280;22738;45.560;9.434;2023-08-31T08:38:58;99643.63;;;29.79;100.00
36788;BME280;22738;45.560;9.434;2023-08-31T08:45:39;99650.53;;;29.69;100.00
36788;BME280;22738;45.560;9.434;2023-08-31T08:52:22;99656.00;;;29.74;100.00
36788;BME280;22738;45.560;9.434;2023-08-31T08:59:04;99656.00;;;29.74;100.00
36788;BME280;22738;45.560;9.434;2023-08-31T09:05:45;99650.56;;;29.50;100.00
36788;BME280;22738;45.560;9.434;2023-08-31T09:12:26;99656.38;;;29.29;100.00
36788;BME280;22738;45.560;9.434;2023-08-31T09:19:17;99643.50;;;29.56;100.00
36788;BME280;22738;45.560;9.434;2023-08-31T09:25:59;99653.84;;;29.52;100.00
36788;BME280;22738;45.560;9.434;2023-08-31T09:32:40;99652.63;;;29.12;100.00
36788;BME280;22738;45.560;9.434;2023-08-31T09:39:22;99645.16;;;29.39;100.00
36788;BME280;22738;45.560;9.434;2023-08-31T09:46:03;99642.56;;;29.50;100.00
36788;BME280;22738;45.560;9.434;2023-08-31T09:52:44;99638.41;;;29.18;100.00
36788;BME280;22738;45.560;9.434;2023-08-31T09:59:26;99656.91;;;29.67;100.00
36788;BME280;22738;45.560;9.434;2023-08-31T10:06:07;99651.97;;;29.71;100.00
36788;BME280;22738;45.560;9.434;2023-08-31T10:12:50;99650.41;;;29.82;100.00
36788;BME280;22738;45.560;9.434;2023-08-31T10:19:32;99627.50;;;29.86;100.00
36788;BME280;22738;45.560;9.434;2023-08-31T10:26:22;99641.34;;;30.24;100.00
36788;BME280;22738;45.560;9.434;2023-08-31T10:39:44;99626.53;;;29.32;100.00
36788;BME280;22738;45.560;9.434;2023-08-31T10:53:09;99636.72;;;28.99;100.00
36788;BME280;22738;45.560;9.434;2023-08-31T10:59:51;99633.88;;;28.51;100.00
36788;BME280;22738;45.560;9.434;2023-08-31T11:06:33;99629.91;;;28.60;100.00
36788;BME280;22738;45.560;9.434;2023-08-31T11:13:18;99630.03;;;28.72;100.00
36788;BME280;22738;45.560;9.434;2023-08-31T11:20:00;99629.41;;;28.20;100.00
36788;BME280;22738;45.560;9.434;2023-08-31T11:26:41;99621.47;;;28.39;100.00
36788;BME280;22738;45.560;9.434;2023-08-31T11:33:22;99623.25;;;28.45;100.00
36788;BME280;22738;45.560;9.434;2023-08-31T11:40:03;99635.75;;;29.18;100.00
36788;BME280;22738;45.560;9.434;2023-08-31T11:46:45;99631.41;;;29.35;100.00
36788;BME280;22738;45.560;9.434;2023-08-31T11:53:30;99626.50;;;28.96;100.00
36788;BME280;22738;45.560;9.434;2023-08-31T12:00:11;99624.88;;;28.95;100.00
36788;BME280;22738;45.560;9.434;2023-08-31T12:06:53;99619.56;;;28.46;100.00
36788;BME280;22738;45.560;9.434;2023-08-31T12:13:42;99616.31;;;28.44;100.00
36788;BME280;22738;45.560;9.434;2023-08-31T12:20:26;99615.59;;;28.55;100.00
36788;BME280;22738;45.560;9.434;2023-08-31T12:27:08;99611.59;;;28.88;100.00
36788;BME280;22738;45.560;9.434;2023-08-31T12:33:49;99606.72;;;28.61;100.00
36788;BME280;22738;45.560;9.434;2023-08-31T12:40:30;99609.63;;;29.38;100.00
36788;BME280;22738;45.560;9.434;2023-08-31T12:47:10;99604.56;;;29.48;100.00
36788;BME280;22738;45.560;9.434;2023-08-31T12:53:51;99610.94;;;29.47;100.00
36788;BME280;22738;45.560;9.434;2023-08-31T13:00:32;99615.84;;;28.96;100.00
36788;BME280;22738;45.560;9.434;2023-08-31T13:07:14;99617.00;;;28.82;100.00
36788;BME280;22738;45.560;9.434;2023-08-31T13:13:55;99616.81;;;29.20;100.00
36788;BME280;22738;45.560;9.434;2023-08-31T13:20:36;99619.25;;;29.03;100.00
36788;BME280;22738;45.560;9.434;2023-08-31T13:27:17;99614.34;;;28.82;100.00
36788;BME280;22738;45.560;9.434;2023-08-31T13:33:58;99620.66;;;28.63;100.00
36788;BME280;22738;45.560;9.434;2023-08-31T13:40:39;99620.03;;;28.85;100.00
36788;BME280;22738;45.560;9.434;2023-08-31T13:47:20;99619.22;;;28.85;100.00
36788;BME280;22738;45.560;9.434;2023-08-31T13:54:02;99618.34;;;28.91;93.97
36788;BME280;22738;45.560;9.434;2023-08-31T14:00:47;99613.00;;;28.91;95.98
36788;BME280;22738;45.560;9.434;2023-08-31T14:07:28;99605.59;;;28.93;99.02
36788;BME280;22738;45.560;9.434;2023-08-31T14:14:09;99609.44;;;29.15;83.47
36788;BME280;22738;45.560;9.434;2023-08-31T14:20:51;99610.56;;;28.89;87.09
36788;BME280;22738;45.560;9.434;2023-08-31T14:27:32;99615.78;;;28.60;89.62
36788;BME280;22738;45.560;9.434;2023-08-31T14:34:13;99608.09;;;28.70;87.97
36788;BME280;22738;45.560;9.434;2023-08-31T14:40:53;99593.25;;;28.49;87.10
36788;BME280;22738;45.560;9.434;2023-08-31T14:47:34;99598.66;;;28.43;95.31
36788;BME280;22738;45.560;9.434;2023-08-31T14:54:15;99595.06;;;28.31;97.04
36788;BME280;22738;45.560;9.434;2023-08-31T15:00:56;99599.47;;;28.18;99.79
36788;BME280;22738;45.560;9.434;2023-08-31T15:07:38;99605.06;;;28.10;100.00
36788;BME280;22738;45.560;9.434;2023-08-31T15:14:19;99609.84;;;28.02;100.00
36788;BME280;22738;45.560;9.434;2023-08-31T15:21:00;99616.31;;;27.81;100.00
36788;BME280;22738;45.560;9.434;2023-08-31T15:27:42;99628.13;;;27.98;100.00
36788;BME280;22738;45.560;9.434;2023-08-31T15:34:22;99632.16;;;28.07;100.00
36788;BME280;22738;45.560;9.434;2023-08-31T15:41:05;99626.88;;;28.01;100.00
36788;BME280;22738;45.560;9.434;2023-08-31T15:47:47;99626.13;;;27.87;100.00
36788;BME280;22738;45.560;9.434;2023-08-31T15:54:31;99627.03;;;27.68;100.00
36788;BME280;22738;45.560;9.434;2023-08-31T16:01:11;99630.59;;;27.49;100.00
36788;BME280;22738;45.560;9.434;2023-08-31T16:07:52;99632.69;;;27.40;100.00
36788;BME280;22738;45.560;9.434;2023-08-31T16:14:33;99636.16;;;27.34;100.00
36788;BME280;22738;45.560;9.434;2023-08-31T16:21:14;99636.59;;;27.25;100.00
36788;BME280;22738;45.560;9.434;2023-08-31T16:27:55;99632.56;;;27.09;100.00
36788;BME280;22738;45.560;9.434;2023-08-31T16:34:37;99633.78;;;27.07;100.00
36788;BME280;22738;45.560;9.434;2023-08-31T16:41:18;99644.66;;;26.99;100.00
36788;BME280;22738;45.560;9.434;2023-08-31T16:47:59;99630.56;;;26.92;100.00
36788;BME280;22738;45.560;9.434;2023-08-31T16:54:40;99640.78;;;26.81;100.00
36788;BME280;22738;45.560;9.434;2023-08-31T17:01:21;99638.72;;;26.70;100.00
36788;BME280;22738;45.560;9.434;2023-08-31T17:08:02;99626.88;;;26.60;100.00
36788;BME280;22738;45.560;9.434;2023-08-31T17:14:43;99624.63;;;26.50;100.00
36788;BME280;22738;45.560;9.434;2023-08-31T17:21:25;99620.34;;;26.49;100.00
36788;BME280;22738;45.560;9.434;2023-08-31T17:28:06;99632.19;;;26.27;100.00
36788;BME280;22738;45.560;9.434;2023-08-31T17:34:47;99630.53;;;26.13;100.00
36788;BME280;22738;45.560;9.434;2023-08-31T17:41:28;99643.56;;;26.08;100.00
36788;BME280;22738;45.560;9.434;2023-08-31T17:48:09;99644.38;;;26.02;100.00
36788;BME280;22738;45.560;9.434;2023-08-31T17:54:50;99655.81;;;25.89;100.00
36788;BME280;22738;45.560;9.434;2023-08-31T18:01:32;99668.63;;;25.73;100.00
36788;BME280;22738;45.560;9.434;2023-08-31T18:08:13;99675.34;;;25.69;100.00
36788;BME280;22738;45.560;9.434;2023-08-31T18:14:54;99688.78;;;25.61;100.00
36788;BME280;22738;45.560;9.434;2023-08-31T18:21:35;99708.31;;;25.46;100.00
36788;BME280;22738;45.560;9.434;2023-08-31T18:28:16;99713.94;;;25.30;100.00
36788;BME280;22738;45.560;9.434;2023-08-31T18:34:57;99722.19;;;25.14;100.00
36788;BME280;22738;45.560;9.434;2023-08-31T18:41:38;99741.06;;;24.98;100.00
36788;BME280;22738;45.560;9.434;2023-08-31T18:48:19;99743.84;;;24.90;100.00
36788;BME280;22738;45.560;9.434;2023-08-31T18:55:00;99762.56;;;24.67;100.00
36788;BME280;22738;45.560;9.434;2023-08-31T19:01:41;99758.34;;;24.52;100.00
36788;BME280;22738;45.560;9.434;2023-08-31T19:08:22;99768.19;;;24.37;100.00
36788;BME280;22738;45.560;9.434;2023-08-31T19:15:03;99775.34;;;24.22;100.00
36788;BME280;22738;45.560;9.434;2023-08-31T19:21:44;99788.13;;;24.03;100.00
36788;BME280;22738;45.560;9.434;2023-08-31T19:28:25;99796.31;;;23.87;100.00
36788;BME280;22738;45.560;9.434;2023-08-31T19:35:06;99801.13;;;23.69;100.00
36788;BME280;22738;45.560;9.434;2023-08-31T19:41:47;99803.44;;;23.58;100.00
36788;BME280;22738;45.560;9.434;2023-08-31T19:48:29;99809.13;;;23.47;100.00
36788;BME280;22738;45.560;9.434;2023-08-31T19:55:12;99807.22;;;23.40;100.00
36788;BME280;22738;45.560;9.434;2023-08-31T20:01:53;99819.38;;;23.35;100.00
36788;BME280;22738;45.560;9.434;2023-08-31T20:08:33;99815.47;;;23.23;100.00
36788;BME280;22738;45.560;9.434;2023-08-31T20:15:16;99832.75;;;23.11;100.00
36788;BME280;22738;45.560;9.434;2023-08-31T20:21:57;99832.88;;;22.95;100.00
36788;BME280;22738;45.560;9.434;2023-08-31T20:28:38;99831.38;;;22.78;100.00
36788;BME280;22738;45.560;9.434;2023-08-31T20:35:19;99838.34;;;22.70;100.00
36788;BME280;22738;45.560;9.434;2023-08-31T20:42:00;99854.91;;;22.56;100.00
36788;BME280;22738;45.560;9.434;2023-08-31T20:48:41;99847.63;;;22.66;100.00
36788;BME280;22738;45.560;9.434;2023-08-31T20:55:23;99853.94;;;22.49;100.00
36788;BME280;22738;45.560;9.434;2023-08-31T21:02:04;99864.97;;;22.30;100.00
36788;BME280;22738;45.560;9.434;2023-08-31T21:08:44;99864.19;;;22.14;100.00
36788;BME280;22738;45.560;9.434;2023-08-31T21:15:27;99861.03;;;22.18;100.00
36788;BME280;22738;45.560;9.434;2023-08-31T21:22:08;99862.34;;;22.22;100.00
36788;BME280;22738;45.560;9.434;2023-08-31T21:28:50;99870.63;;;22.19;100.00
36788;BME280;22738;45.560;9.434;2023-08-31T21:35:34;99870.63;;;22.19;100.00
36788;BME280;22738;45.560;9.434;2023-08-31T21:42:16;99879.56;;;22.10;100.00
36788;BME280;22738;45.560;9.434;2023-08-31T21:48:56;99891.16;;;22.01;100.00
36788;BME280;22738;45.560;9.434;2023-08-31T21:55:37;99901.06;;;21.91;100.00
36788;BME280;22738;45.560;9.434;2023-08-31T22:02:19;99893.81;;;21.85;100.00
36788;BME280;22738;45.560;9.434;2023-08-31T22:09:00;99894.47;;;21.87;100.00
36788;BME280;22738;45.560;9.434;2023-08-31T22:15:41;99896.59;;;21.75;100.00
36788;BME280;22738;45.560;9.434;2023-08-31T22:22:23;99901.72;;;21.69;100.00
36788;BME280;22738;45.560;9.434;2023-08-31T22:29:04;99912.28;;;21.61;100.00
36788;BME280;22738;45.560;9.434;2023-08-31T22:35:45;99912.94;;;21.63;100.00
36788;BME280;22738;45.560;9.434;2023-08-31T22:42:26;99905.03;;;21.55;100.00
36788;BME280;22738;45.560;9.434;2023-08-31T22:49:07;99905.34;;;21.52;100.00
36788;BME280;22738;45.560;9.434;2023-08-31T22:55:48;99916.41;;;21.39;100.00
36788;BME280;22738;45.560;9.434;2023-08-31T23:02:29;99925.66;;;21.35;100.00
36788;BME280;22738;45.560;9.434;2023-08-31T23:09:10;99920.88;;;21.30;100.00
36788;BME280;22738;45.560;9.434;2023-08-31T23:15:51;99920.84;;;21.22;100.00
36788;BME280;22738;45.560;9.434;2023-08-31T23:22:32;99922.31;;;21.09;100.00
36788;BME280;22738;45.560;9.434;2023-08-31T23:29:13;99924.13;;;21.08;100.00
36788;BME280;22738;45.560;9.434;2023-08-31T23:35:57;99918.84;;;21.08;100.00
36788;BME280;22738;45.560;9.434;2023-08-31T23:42:38;99921.44;;;21.00;100.00
36788;BME280;22738;45.560;9.434;2023-08-31T23:49:18;99924.41;;;20.89;100.00
36788;BME280;22738;45.560;9.434;2023-08-31T23:56:06;99914.97;;;20.79;100.00
